createdAt,value
2022-12-14T00:00:30.849Z,20.60
2022-12-14T00:03:01.577Z,20.63
2022-12-14T00:05:31.743Z,20.10
2022-12-14T00:08:01.099Z,18.43
2022-12-14T00:10:30.206Z,18.40
2022-12-14T00:12:59.064Z,19.20
2022-12-14T00:15:28.623Z,19.67
2022-12-14T00:17:57.602Z,19.53
2022-12-14T00:20:28.952Z,19.23
2022-12-14T00:22:58.186Z,19.60
2022-12-14T00:25:27.296Z,18.77
2022-12-14T00:27:56.369Z,19.40
2022-12-14T00:30:25.608Z,19.97
2022-12-14T00:32:55.038Z,19.43
2022-12-14T00:35:25.354Z,19.97
2022-12-14T00:37:55.775Z,19.53
2022-12-14T00:40:24.822Z,19.47
2022-12-14T00:42:54.008Z,19.33
2022-12-14T00:45:23.291Z,18.33
2022-12-14T00:47:52.380Z,18.67
2022-12-14T00:50:21.677Z,18.63
2022-12-14T00:52:51.278Z,18.87
2022-12-14T00:55:22.899Z,18.87
2022-12-14T00:57:51.970Z,18.27
2022-12-14T01:00:21.295Z,17.33
2022-12-14T01:02:50.529Z,18.53
2022-12-14T01:05:19.702Z,18.47
2022-12-14T01:07:48.919Z,18.60
2022-12-14T01:10:18.148Z,18.93
2022-12-14T01:12:48.418Z,18.70
2022-12-14T01:15:17.511Z,17.83
2022-12-14T01:17:46.633Z,18.73
2022-12-14T01:20:15.858Z,18.93
2022-12-14T01:22:45.053Z,17.73
2022-12-14T01:25:14.871Z,16.73
2022-12-14T01:27:43.887Z,18.47
2022-12-14T01:30:14.866Z,17.73
2022-12-14T01:32:44.180Z,17.73
2022-12-14T01:35:13.128Z,17.57
2022-12-14T01:37:42.566Z,18.20
2022-12-14T01:40:12.250Z,17.37
2022-12-14T01:42:41.106Z,17.33
2022-12-14T01:45:21.161Z,17.80
2022-12-14T01:47:54.786Z,17.40
2022-12-14T01:50:30.415Z,18.30
2022-12-14T01:53:03.201Z,17.40
2022-12-14T01:55:36.962Z,18.50
2022-12-14T01:58:10.373Z,18.23
2022-12-14T02:00:42.197Z,17.80
2022-12-14T02:03:14.622Z,18.43
2022-12-14T02:05:48.126Z,19.23
2022-12-14T02:08:19.239Z,18.37
2022-12-14T02:10:49.012Z,17.27
2022-12-14T02:13:22.026Z,17.83
2022-12-14T02:15:54.019Z,17.97
2022-12-14T02:18:26.296Z,18.33
2022-12-14T02:21:17.410Z,17.70
2022-12-14T02:24:09.139Z,18.60
2022-12-14T02:26:59.151Z,18.90
2022-12-14T02:29:52.629Z,17.67
2022-12-14T02:32:44.206Z,17.60
2022-12-14T02:35:21.089Z,17.77
2022-12-14T02:38:01.264Z,17.53
2022-12-14T02:40:36.845Z,17.50
2022-12-14T02:43:15.280Z,18.63
2022-12-14T02:45:51.464Z,17.17
2022-12-14T02:48:24.920Z,18.03
2022-12-14T02:51:02.219Z,18.10
2022-12-14T02:53:36.178Z,18.50
2022-12-14T02:56:09.617Z,18.47
2022-12-14T02:58:41.706Z,17.90
2022-12-14T03:01:15.523Z,18.63
2022-12-14T03:03:45.030Z,17.77
2022-12-14T03:06:17.774Z,17.37
2022-12-14T03:08:48.335Z,18.13
2022-12-14T03:11:21.789Z,18.17
2022-12-14T03:13:56.894Z,18.60
2022-12-14T03:16:30.345Z,17.87
2022-12-14T03:19:05.983Z,17.73
2022-12-14T03:21:37.862Z,17.10
2022-12-14T03:24:12.607Z,17.37
2022-12-14T03:26:47.709Z,16.37
2022-12-14T03:29:22.665Z,18.33
2022-12-14T03:31:56.148Z,17.57
2022-12-14T03:34:30.501Z,17.87
2022-12-14T03:37:05.598Z,17.33
2022-12-14T03:39:37.148Z,17.53
2022-12-14T03:42:12.741Z,17.57
2022-12-14T03:44:50.010Z,16.83
2022-12-14T03:47:35.426Z,18.00
2022-12-14T03:50:11.392Z,16.73
2022-12-14T03:52:43.586Z,17.43
2022-12-14T03:55:24.609Z,18.10
2022-12-14T03:58:18.597Z,17.57
2022-12-14T04:00:54.784Z,17.33
2022-12-14T04:03:36.469Z,17.53
2022-12-14T04:06:09.371Z,16.97
2022-12-14T04:08:45.123Z,17.77
2022-12-14T04:11:34.890Z,18.27
2022-12-14T04:14:28.886Z,17.07
2022-12-14T04:17:18.851Z,17.20
2022-12-14T04:19:54.808Z,17.23
2022-12-14T04:22:27.335Z,17.00
2022-12-14T04:25:17.433Z,17.00
2022-12-14T04:27:50.609Z,17.07
2022-12-14T04:30:19.401Z,16.97
2022-12-14T04:32:51.759Z,16.57
2022-12-14T04:35:27.313Z,16.97
2022-12-14T04:38:00.507Z,16.43
2022-12-14T04:40:34.294Z,17.70
2022-12-14T04:43:07.342Z,17.40
2022-12-14T04:45:42.454Z,17.70
2022-12-14T04:48:19.538Z,16.70
2022-12-14T04:50:56.769Z,16.70
2022-12-14T04:53:30.558Z,18.20
2022-12-14T04:56:08.066Z,17.20
2022-12-14T04:58:37.386Z,18.43
2022-12-14T05:01:31.255Z,17.33
2022-12-14T05:04:10.926Z,17.73
2022-12-14T05:06:51.529Z,16.90
2022-12-14T05:09:27.435Z,17.70
2022-12-14T05:12:05.464Z,18.63
2022-12-14T05:14:38.927Z,18.03
2022-12-14T05:17:09.703Z,18.57
2022-12-14T05:19:45.188Z,19.07
2022-12-14T05:22:20.691Z,18.30
2022-12-14T05:24:49.632Z,18.27
2022-12-14T05:27:18.664Z,18.93
2022-12-14T05:29:47.821Z,18.60
2022-12-14T05:32:17.500Z,18.87
2022-12-14T05:34:46.521Z,19.07
2022-12-14T05:37:18.420Z,20.00
2022-12-14T05:39:49.516Z,18.73
2022-12-14T05:42:18.512Z,19.27
2022-12-14T05:44:47.460Z,18.77
2022-12-14T05:47:16.635Z,18.50
2022-12-14T05:49:45.867Z,18.50
2022-12-14T05:52:18.514Z,19.30
2022-12-14T05:54:49.274Z,18.00
2022-12-14T05:57:18.195Z,18.37
2022-12-14T05:59:47.282Z,19.03
2022-12-14T06:02:16.591Z,19.03
2022-12-14T06:04:45.891Z,19.20
2022-12-14T06:07:14.954Z,18.80
2022-12-14T06:09:44.066Z,19.10
2022-12-14T06:12:14.630Z,19.07
2022-12-14T06:14:43.692Z,17.83
2022-12-14T06:17:13.153Z,19.60
2022-12-14T06:19:43.092Z,18.70
2022-12-14T06:22:19.111Z,18.73
2022-12-14T06:24:48.274Z,18.20
2022-12-14T06:27:19.236Z,17.73
2022-12-14T06:29:48.235Z,18.07
2022-12-14T06:32:17.260Z,18.63
2022-12-14T06:34:46.846Z,18.13
2022-12-14T06:37:16.083Z,18.77
2022-12-14T06:39:46.456Z,19.73
2022-12-14T06:42:23.247Z,18.80
2022-12-14T06:44:52.231Z,18.97
2022-12-14T06:47:21.692Z,19.23
2022-12-14T06:49:51.457Z,19.00
2022-12-14T06:52:26.525Z,20.40
2022-12-14T06:54:56.108Z,19.63
2022-12-14T06:57:27.308Z,19.50
2022-12-14T06:59:56.309Z,19.97
2022-12-14T07:02:25.470Z,19.47
2022-12-14T07:04:54.788Z,21.10
2022-12-14T07:07:23.943Z,22.23
2022-12-14T07:09:53.035Z,21.30
2022-12-14T07:12:22.054Z,21.07
2022-12-14T07:14:52.555Z,20.03
2022-12-14T07:17:21.555Z,19.87
2022-12-14T07:19:50.447Z,20.53
2022-12-14T07:22:19.888Z,19.70
2022-12-14T07:24:48.975Z,19.57
2022-12-14T07:27:19.527Z,20.70
2022-12-14T07:29:48.685Z,20.37
2022-12-14T07:32:19.377Z,21.13
2022-12-14T07:34:49.489Z,21.63
2022-12-14T07:37:18.950Z,23.07
2022-12-14T07:39:48.324Z,20.57
2022-12-14T07:42:17.314Z,20.00
2022-12-14T07:44:49.234Z,21.77
2022-12-14T07:47:19.793Z,20.83
2022-12-14T07:49:48.844Z,21.13
2022-12-14T07:52:17.919Z,23.87
2022-12-14T07:54:46.978Z,44.70
2022-12-14T07:57:16.297Z,36.07
2022-12-14T07:59:45.319Z,24.23
2022-12-14T08:02:14.529Z,22.57
2022-12-14T08:04:45.200Z,22.37
2022-12-14T08:07:14.318Z,21.60
2022-12-14T08:09:43.429Z,21.13
2022-12-14T08:12:12.647Z,21.37
2022-12-14T08:14:41.771Z,22.90
2022-12-14T08:17:11.194Z,22.93
2022-12-14T08:19:40.433Z,22.17
2022-12-14T08:22:11.485Z,22.40
2022-12-14T08:24:40.447Z,23.80
2022-12-14T08:27:09.419Z,23.53
2022-12-14T08:29:38.440Z,23.40
2022-12-14T08:32:08.666Z,23.73
2022-12-14T08:34:37.855Z,23.10
2022-12-14T08:37:06.832Z,23.60
2022-12-14T08:39:37.342Z,23.97
2022-12-14T08:42:06.512Z,21.83
2022-12-14T08:44:35.610Z,24.23
2022-12-14T08:47:04.834Z,23.47
2022-12-14T08:49:33.991Z,23.40
2022-12-14T08:52:03.172Z,23.13
2022-12-14T08:54:32.529Z,24.47
2022-12-14T08:57:04.311Z,23.83
2022-12-14T09:00:00.208Z,24.07
2022-12-14T09:02:23.058Z,22.67
2022-12-14T09:04:52.344Z,23.60
2022-12-14T09:07:21.448Z,24.40
2022-12-14T09:09:50.797Z,23.50
2022-12-14T09:12:21.844Z,23.33
2022-12-14T09:14:51.705Z,22.97
2022-12-14T09:17:20.741Z,24.13
2022-12-14T09:19:49.707Z,24.90
2022-12-14T09:22:18.767Z,24.63
2022-12-14T09:24:47.952Z,25.03
2022-12-14T09:27:17.032Z,23.93
2022-12-14T09:29:47.751Z,24.33
2022-12-14T09:32:17.224Z,24.60
2022-12-14T09:34:46.293Z,23.83
2022-12-14T09:37:16.185Z,23.67
2022-12-14T09:39:45.233Z,23.23
2022-12-14T09:42:29.900Z,23.77
2022-12-14T09:45:05.590Z,23.97
2022-12-14T09:47:43.486Z,23.53
2022-12-14T09:50:16.776Z,24.73
2022-12-14T09:52:48.050Z,25.27
2022-12-14T09:55:22.378Z,24.27
2022-12-14T09:57:55.755Z,24.90
2022-12-14T10:00:31.242Z,25.83
2022-12-14T10:03:20.869Z,24.97
2022-12-14T10:06:04.438Z,23.53
2022-12-14T10:08:41.290Z,24.77
2022-12-14T10:11:29.198Z,25.33
2022-12-14T10:14:12.690Z,24.40
2022-12-14T10:16:52.646Z,25.47
2022-12-14T10:19:31.309Z,24.57
2022-12-14T10:22:04.849Z,24.57
2022-12-14T10:24:39.741Z,27.50
2022-12-14T10:27:11.468Z,27.30
2022-12-14T10:29:46.439Z,25.23
2022-12-14T10:32:22.324Z,26.33
2022-12-14T10:34:52.245Z,27.13
2022-12-14T10:37:27.423Z,24.83
2022-12-14T10:40:30.794Z,25.97
2022-12-14T10:43:34.355Z,24.37
2022-12-14T10:46:14.974Z,26.53
2022-12-14T10:48:52.905Z,25.33
2022-12-14T10:51:29.342Z,26.20
2022-12-14T10:54:03.863Z,24.63
2022-12-14T10:56:36.052Z,24.60
2022-12-14T10:59:25.324Z,23.33
2022-12-14T11:01:59.625Z,25.53
2022-12-14T11:04:34.479Z,24.67
2022-12-14T11:07:06.902Z,25.03
2022-12-14T11:09:37.226Z,23.90
2022-12-14T11:12:08.488Z,25.13
2022-12-14T11:14:38.262Z,25.20
2022-12-14T11:17:29.617Z,25.40
2022-12-14T11:20:15.083Z,24.67
2022-12-14T11:22:46.057Z,27.93
2022-12-14T11:25:31.677Z,26.40
2022-12-14T11:28:03.137Z,25.37
2022-12-14T11:30:33.346Z,45.20
2022-12-14T11:33:02.529Z,28.47
2022-12-14T11:35:32.935Z,25.40
2022-12-14T11:38:03.536Z,23.87
2022-12-14T11:40:38.170Z,24.73
2022-12-14T11:43:23.142Z,24.03
2022-12-14T11:45:52.930Z,24.77
2022-12-14T11:48:23.962Z,24.60
2022-12-14T11:50:56.860Z,23.83
2022-12-14T11:53:27.259Z,23.87
2022-12-14T11:55:59.525Z,23.70
2022-12-14T11:58:33.506Z,22.60
2022-12-14T12:01:05.819Z,26.87
2022-12-14T12:03:39.538Z,26.03
2022-12-14T12:06:13.862Z,24.47
2022-12-14T12:08:44.983Z,25.70
2022-12-14T12:11:19.240Z,24.60
2022-12-14T12:13:51.928Z,24.07
2022-12-14T12:16:24.226Z,24.60
2022-12-14T12:18:59.872Z,25.20
2022-12-14T12:21:32.491Z,25.50
2022-12-14T12:24:08.565Z,25.23
2022-12-14T12:26:41.422Z,25.43
2022-12-14T12:29:16.701Z,25.93
2022-12-14T12:31:53.491Z,23.97
2022-12-14T12:34:26.553Z,24.90
2022-12-14T12:37:25.331Z,24.97
2022-12-14T12:39:56.669Z,26.33
2022-12-14T12:42:33.269Z,26.60
2022-12-14T12:45:09.478Z,24.97
2022-12-14T12:47:47.609Z,26.30
2022-12-14T12:50:21.478Z,25.40
2022-12-14T12:53:03.112Z,26.17
2022-12-14T12:55:37.325Z,26.57
2022-12-14T12:58:09.674Z,27.07
2022-12-14T13:00:41.182Z,26.97
2022-12-14T13:03:14.232Z,26.90
2022-12-14T13:05:47.339Z,28.20
2022-12-14T13:08:26.545Z,27.33
2022-12-14T13:13:53.072Z,27.03
2022-12-14T13:16:28.249Z,27.03
2022-12-14T13:19:32.119Z,27.40
2022-12-14T13:21:56.354Z,27.77
2022-12-14T13:24:30.179Z,26.27
2022-12-14T13:27:31.310Z,26.53
2022-12-14T13:30:25.512Z,26.10
2022-12-14T13:33:30.936Z,25.93
2022-12-14T13:36:19.906Z,26.70
2022-12-14T13:39:03.498Z,26.60
2022-12-14T13:41:42.587Z,27.70
2022-12-14T13:44:38.674Z,28.37
2022-12-14T13:47:17.095Z,27.80
2022-12-14T13:50:26.344Z,26.37
2022-12-14T13:52:45.774Z,27.30
2022-12-14T13:55:32.030Z,26.10
2022-12-14T13:58:15.529Z,26.47
2022-12-14T14:01:07.862Z,28.80
2022-12-14T14:03:51.319Z,26.40
2022-12-14T14:06:42.407Z,27.47
2022-12-14T14:09:57.438Z,25.93
2022-12-14T14:12:44.991Z,28.87
2022-12-14T14:18:49.359Z,28.40
2022-12-14T14:21:32.081Z,28.20
2022-12-14T14:24:02.777Z,28.57
2022-12-14T14:26:34.277Z,26.93
2022-12-14T14:29:21.628Z,29.20
2022-12-14T14:31:55.594Z,28.07
2022-12-14T14:34:38.398Z,29.40
2022-12-14T14:37:33.415Z,27.10
2022-12-14T14:40:20.725Z,27.43
2022-12-14T14:43:05.680Z,28.70
2022-12-14T14:45:41.982Z,29.00
2022-12-14T14:48:23.974Z,28.97
2022-12-14T14:51:05.772Z,29.00
2022-12-14T14:53:36.312Z,30.70
2022-12-14T14:56:13.953Z,28.33
2022-12-14T14:58:43.733Z,29.47
2022-12-14T15:01:24.718Z,29.67
2022-12-14T15:04:00.940Z,29.23
2022-12-14T15:06:32.683Z,28.40
2022-12-14T15:09:06.650Z,29.13
2022-12-14T15:11:46.322Z,30.33
2022-12-14T15:14:35.614Z,29.57
2022-12-14T15:17:16.043Z,29.53
2022-12-14T15:19:51.112Z,30.70
2022-12-14T15:22:22.657Z,29.53
2022-12-14T15:24:55.205Z,31.00
2022-12-14T15:27:29.578Z,31.20
2022-12-14T15:30:05.495Z,30.27
2022-12-14T15:32:34.799Z,35.47
2022-12-14T15:35:08.996Z,30.43
2022-12-14T15:37:42.988Z,29.20
2022-12-14T15:40:16.432Z,28.93
2022-12-14T15:42:49.802Z,30.20
2022-12-14T15:45:25.348Z,30.77
2022-12-14T15:47:54.998Z,30.17
2022-12-14T15:50:29.675Z,29.77
2022-12-14T15:53:14.170Z,31.27
2022-12-14T15:55:56.400Z,30.07
2022-12-14T15:58:34.805Z,30.73
2022-12-14T16:01:12.565Z,30.80
2022-12-14T16:03:45.014Z,30.83
2022-12-14T16:06:17.502Z,31.37
2022-12-14T16:08:51.739Z,29.53
2022-12-14T16:11:25.974Z,29.33
2022-12-14T16:13:57.834Z,30.40
2022-12-14T16:16:27.205Z,31.40
2022-12-14T16:19:13.840Z,34.20
2022-12-14T16:22:05.152Z,30.23
2022-12-14T16:24:34.316Z,29.97
2022-12-14T16:27:03.630Z,30.47
2022-12-14T16:29:34.723Z,30.23
2022-12-14T16:32:05.818Z,32.30
2022-12-14T16:34:35.343Z,29.73
2022-12-14T16:37:31.520Z,29.93
2022-12-14T16:39:56.459Z,31.23
2022-12-14T16:42:27.100Z,30.90
2022-12-14T16:44:56.387Z,31.90
2022-12-14T16:47:28.816Z,30.57
2022-12-14T16:50:00.416Z,30.47
2022-12-14T16:52:33.653Z,34.13
2022-12-14T16:55:13.168Z,34.20
2022-12-14T16:57:53.619Z,35.07
2022-12-14T17:00:25.180Z,35.20
2022-12-14T17:02:58.086Z,34.23
2022-12-14T17:05:33.147Z,34.80
2022-12-14T17:08:03.990Z,34.70
2022-12-14T17:10:33.817Z,33.27
2022-12-14T17:13:03.955Z,37.20
2022-12-14T17:15:35.378Z,35.87
2022-12-14T17:18:06.334Z,36.70
2022-12-14T17:20:37.046Z,34.87
2022-12-14T17:23:11.022Z,36.67
2022-12-14T17:25:44.684Z,35.10
2022-12-14T17:28:22.718Z,35.00
2022-12-14T17:30:54.286Z,36.43
2022-12-14T17:33:24.063Z,35.77
2022-12-14T17:35:53.775Z,35.27
2022-12-14T17:38:24.677Z,34.97
2022-12-14T17:40:54.526Z,34.63
2022-12-14T17:43:27.345Z,36.30
2022-12-14T17:46:01.047Z,38.07
2022-12-14T17:48:30.939Z,35.27
2022-12-14T17:51:00.104Z,34.80
2022-12-14T17:53:31.719Z,33.50
2022-12-14T17:56:01.158Z,34.70
2022-12-14T17:58:30.140Z,33.83
2022-12-14T18:01:03.103Z,33.57
2022-12-14T18:03:36.907Z,36.30
2022-12-14T18:06:06.568Z,35.73
2022-12-14T18:08:36.875Z,35.23
2022-12-14T18:11:13.340Z,38.90
2022-12-14T18:13:43.747Z,37.30
2022-12-14T18:16:15.584Z,36.77
2022-12-14T18:18:47.336Z,34.77
2022-12-14T18:21:20.950Z,39.87
2022-12-14T18:23:53.432Z,35.60
2022-12-14T18:26:24.083Z,37.67
2022-12-14T18:28:55.381Z,37.67
2022-12-14T18:31:28.302Z,34.50
2022-12-14T18:33:57.488Z,35.60
2022-12-14T18:36:26.511Z,34.73
2022-12-14T18:38:56.970Z,37.43
2022-12-14T18:41:27.670Z,35.20
2022-12-14T18:43:56.985Z,35.53
2022-12-14T18:46:26.774Z,34.70
2022-12-14T18:48:57.044Z,34.10
2022-12-14T18:51:27.078Z,35.17
2022-12-14T18:53:59.101Z,36.00
2022-12-14T18:56:29.186Z,37.90
2022-12-14T18:59:00.893Z,38.30
2022-12-14T19:01:29.881Z,34.80
2022-12-14T19:03:59.147Z,38.03
2022-12-14T19:06:44.253Z,35.80
2022-12-14T19:09:16.013Z,38.77
2022-12-14T19:11:45.711Z,37.53
2022-12-14T19:14:15.015Z,38.20
2022-12-14T19:16:44.034Z,35.93
2022-12-14T19:19:13.360Z,36.13
2022-12-14T19:21:42.708Z,38.10
2022-12-14T19:24:14.355Z,34.60
2022-12-14T19:26:45.109Z,38.23
2022-12-14T19:29:18.702Z,37.23
2022-12-14T19:31:50.579Z,38.07
2022-12-14T19:34:23.241Z,36.87
2022-12-14T19:36:52.422Z,36.17
2022-12-14T19:39:21.761Z,36.50
2022-12-14T19:41:54.119Z,34.70
2022-12-14T19:44:23.135Z,35.37
2022-12-14T19:46:52.238Z,35.13
2022-12-14T19:49:22.435Z,38.47
2022-12-14T19:51:51.669Z,35.47
2022-12-14T19:54:20.806Z,37.43
2022-12-14T19:56:53.148Z,35.37
2022-12-14T19:59:22.225Z,38.77
2022-12-14T20:01:51.705Z,38.27
2022-12-14T20:04:21.211Z,36.80
2022-12-14T20:06:50.996Z,37.03
2022-12-14T20:09:20.393Z,36.97
2022-12-14T20:11:53.385Z,38.40
2022-12-14T20:14:22.324Z,36.97
2022-12-14T20:16:52.339Z,37.23
2022-12-14T20:19:21.875Z,35.80
2022-12-14T20:21:50.812Z,35.43
2022-12-14T20:24:20.153Z,34.67
2022-12-14T20:26:49.266Z,36.97
2022-12-14T20:29:20.373Z,37.77
2022-12-14T20:31:49.912Z,38.50
2022-12-14T20:34:19.278Z,35.87
2022-12-14T20:36:48.314Z,39.83
2022-12-14T20:39:17.348Z,38.70
2022-12-14T20:41:46.385Z,38.30
2022-12-14T20:44:16.211Z,38.73
2022-12-14T20:46:47.903Z,41.60
2022-12-14T20:49:19.203Z,39.23
2022-12-14T20:51:49.390Z,36.27
2022-12-14T20:54:22.361Z,41.97
2022-12-14T20:56:51.667Z,38.37
2022-12-14T20:59:21.141Z,43.47
2022-12-14T21:01:56.270Z,43.30
2022-12-14T21:04:26.002Z,38.47
2022-12-14T21:06:55.210Z,41.07
2022-12-14T21:09:24.499Z,40.63
2022-12-14T21:12:16.086Z,38.83
2022-12-14T21:14:48.149Z,40.97
2022-12-14T21:17:19.720Z,43.03
2022-12-14T21:19:49.010Z,41.63
2022-12-14T21:22:19.916Z,41.23
2022-12-14T21:25:06.161Z,39.40
2022-12-14T21:27:38.297Z,39.17
2022-12-14T21:30:10.113Z,39.80
2022-12-14T21:32:40.748Z,38.77
2022-12-14T21:35:10.604Z,39.93
2022-12-14T21:37:40.075Z,39.53
2022-12-14T21:40:30.927Z,41.47
2022-12-14T21:42:59.117Z,39.37
2022-12-14T21:45:28.469Z,38.30
2022-12-14T21:47:59.164Z,43.63
2022-12-14T21:50:28.240Z,43.20
2022-12-14T21:52:57.098Z,42.57
2022-12-14T21:55:26.082Z,40.67
2022-12-14T21:58:12.458Z,41.83
2022-12-14T22:00:41.818Z,38.40
2022-12-14T22:03:12.339Z,41.70
2022-12-14T22:05:41.678Z,39.07
2022-12-14T22:08:10.748Z,38.87
2022-12-14T22:10:40.046Z,41.57
2022-12-14T22:13:08.975Z,39.47
2022-12-14T22:15:38.750Z,41.73
2022-12-14T22:18:07.931Z,43.23
2022-12-14T22:20:39.679Z,41.27
2022-12-14T22:23:11.502Z,41.77
2022-12-14T22:25:53.631Z,41.37
2022-12-14T22:28:23.798Z,42.47
2022-12-14T22:30:52.991Z,46.77
2022-12-14T22:33:22.945Z,42.27
2022-12-14T22:35:54.365Z,39.10
2022-12-14T22:38:23.738Z,40.53
2022-12-14T22:40:53.715Z,36.77
2022-12-14T22:43:28.824Z,37.73
2022-12-14T22:46:02.118Z,39.60
2022-12-14T22:48:33.470Z,37.63
2022-12-14T22:51:06.743Z,35.67
2022-12-14T22:53:36.249Z,37.93
2022-12-14T22:56:11.840Z,39.27
2022-12-14T22:58:49.549Z,38.80
2022-12-14T23:01:20.302Z,36.67
2022-12-14T23:03:49.639Z,38.20
2022-12-14T23:06:20.386Z,36.40
2022-12-14T23:09:08.430Z,37.67
2022-12-14T23:11:55.391Z,37.20
2022-12-14T23:14:41.753Z,40.23
2022-12-14T23:17:28.304Z,37.90
2022-12-14T23:20:14.817Z,37.50
2022-12-14T23:23:02.726Z,39.67
2022-12-14T23:25:52.225Z,36.23
2022-12-14T23:28:38.595Z,39.63
2022-12-14T23:31:25.218Z,40.00
2022-12-14T23:34:11.898Z,39.90
2022-12-14T23:36:58.499Z,39.00
2022-12-14T23:39:46.061Z,39.70
2022-12-14T23:42:32.409Z,43.43
2022-12-14T23:45:18.918Z,36.23
2022-12-14T23:48:05.523Z,40.43
2022-12-14T23:50:52.171Z,42.47
2022-12-14T23:53:39.145Z,43.80
2022-12-14T23:56:27.122Z,47.07
2022-12-14T23:59:14.370Z,46.30
